createdAt,value
2022-11-03T00:01:32.490Z,46.5
2022-11-03T00:06:50.670Z,46.8
2022-11-03T00:12:08.887Z,46.2
2022-11-03T00:17:27.404Z,45.6
2022-11-03T00:22:46.147Z,46.9
2022-11-03T00:28:04.654Z,46.7
2022-11-03T00:33:23.152Z,46.9
2022-11-03T00:38:41.902Z,46.6
2022-11-03T00:44:00.669Z,46.3
2022-11-03T00:49:19.178Z,46.7
2022-11-03T00:54:37.929Z,47.1
2022-11-03T00:59:55.842Z,46.4
2022-11-03T01:05:14.087Z,47.2
2022-11-03T01:10:32.825Z,46.5
2022-11-03T01:15:51.347Z,45.8
2022-11-03T01:21:10.106Z,47.1
2022-11-03T01:26:28.574Z,46.5
2022-11-03T01:31:47.043Z,47.3
2022-11-03T01:37:05.575Z,47
2022-11-03T01:42:23.737Z,46.6
2022-11-03T01:47:42.496Z,47.3
2022-11-03T01:53:01.017Z,47
2022-11-03T01:58:18.923Z,47
2022-11-03T02:03:37.694Z,46.8
2022-11-03T02:08:56.499Z,46.8
2022-11-03T02:14:14.954Z,47.6
2022-11-03T02:19:33.176Z,46.6
2022-11-03T02:24:54.722Z,47.3
2022-11-03T02:30:12.643Z,46.3
2022-11-03T02:35:31.138Z,47.3
2022-11-03T02:40:49.646Z,47.8
2022-11-03T02:46:08.389Z,47.1
2022-11-03T02:51:26.329Z,47.1
2022-11-03T02:56:44.545Z,47.7
2022-11-03T03:02:03.462Z,47.2
2022-11-03T03:07:21.462Z,46.8
2022-11-03T03:12:39.970Z,47.6
2022-11-03T03:17:58.148Z,47.5
2022-11-03T03:23:18.103Z,47.7
2022-11-03T03:28:36.691Z,47.6
2022-11-03T03:34:34.405Z,46.9
2022-11-03T03:39:53.049Z,47.6
2022-11-03T03:45:11.289Z,46.8
2022-11-03T03:50:29.748Z,47.5
2022-11-03T03:55:47.964Z,47.7
2022-11-03T04:01:06.375Z,47.3
2022-11-03T04:06:24.941Z,47.3
2022-11-03T04:11:43.434Z,47.7
2022-11-03T04:17:01.680Z,47.9
2022-11-03T04:22:20.132Z,47.2
2022-11-03T04:27:23.732Z,47.2
2022-11-03T04:32:41.959Z,47.7
2022-11-03T04:38:00.053Z,48.4
2022-11-03T04:43:18.534Z,48
2022-11-03T04:48:37.049Z,47.2
2022-11-03T04:53:55.502Z,47.3
2022-11-03T04:59:13.704Z,47.4
2022-11-03T05:04:31.947Z,47.8
2022-11-03T05:09:49.839Z,46.5
2022-11-03T05:15:08.321Z,46.8
2022-11-03T05:20:34.787Z,48.1
2022-11-03T05:25:54.257Z,47.8
2022-11-03T05:31:12.744Z,47.2
2022-11-03T05:36:31.001Z,41.9
2022-11-03T05:41:49.441Z,40.8
2022-11-03T05:47:09.164Z,41.4
2022-11-03T05:52:27.403Z,42.9
2022-11-03T05:57:46.267Z,41
2022-11-03T06:03:05.027Z,43
2022-11-03T06:13:42.746Z,45
2022-11-03T06:19:01.505Z,45.6
2022-11-03T06:24:19.468Z,46.4
2022-11-03T06:29:37.644Z,46.1
2022-11-03T06:34:56.135Z,46.7
2022-11-03T06:40:14.103Z,47
2022-11-03T06:45:32.568Z,46.6
2022-11-03T06:50:51.336Z,47.2
2022-11-03T06:56:10.123Z,46.2
2022-11-03T07:01:28.459Z,47.2
2022-11-03T07:06:32.567Z,46.7
2022-11-03T07:11:51.616Z,46
2022-11-03T07:17:10.370Z,46.7
2022-11-03T07:22:29.135Z,46.2
2022-11-03T07:27:47.653Z,46.8
2022-11-03T07:33:05.846Z,46.9
2022-11-03T07:38:24.337Z,46.8
2022-11-03T07:43:43.135Z,46.3
2022-11-03T07:49:01.892Z,46
2022-11-03T07:54:20.365Z,46.8
2022-11-03T07:59:38.874Z,45.9
2022-11-03T08:04:56.786Z,46.5
2022-11-03T08:10:15.265Z,46.8
2022-11-03T08:15:33.502Z,46.8
2022-11-03T08:20:51.973Z,46.4
2022-11-03T08:26:10.465Z,46.1
2022-11-03T08:31:13.850Z,46.7
2022-11-03T08:36:32.025Z,45.9
2022-11-03T08:41:50.791Z,46
2022-11-03T08:47:09.322Z,45.9
2022-11-03T08:52:27.779Z,45.8
2022-11-03T08:57:46.285Z,45.8
2022-11-03T09:03:04.801Z,45.9
2022-11-03T09:14:55.971Z,46.5
2022-11-03T09:20:14.494Z,46.1
2022-11-03T09:25:32.672Z,46.5
2022-11-03T09:30:51.158Z,45.4
2022-11-03T09:36:09.671Z,46.6
2022-11-03T09:41:59.247Z,46.2
2022-11-03T09:47:17.969Z,46.5
2022-11-03T09:52:36.538Z,46.7
2022-11-03T09:57:55.268Z,45.9
2022-11-03T10:03:13.794Z,46.2
2022-11-03T10:08:32.062Z,46.7
2022-11-03T10:13:50.800Z,46.6
2022-11-03T10:19:09.013Z,46.5
2022-11-03T10:24:27.823Z,46.3
2022-11-03T10:29:58.616Z,46.4
2022-11-03T10:35:17.851Z,45.7
2022-11-03T10:40:49.139Z,46.6
2022-11-03T10:46:48.891Z,45.8
2022-11-03T10:52:08.167Z,46.5
2022-11-03T10:57:26.951Z,46.5
2022-11-03T11:02:45.421Z,46.3
2022-11-03T11:08:04.017Z,46.3
2022-11-03T11:13:22.108Z,46.2
2022-11-03T11:18:40.852Z,46.6
2022-11-03T11:23:59.630Z,46.5
2022-11-03T11:29:18.419Z,46.3
2022-11-03T11:34:36.614Z,46.5
2022-11-03T11:39:55.101Z,45.8
2022-11-03T11:45:13.342Z,45.7
2022-11-03T11:50:31.520Z,46.5
2022-11-03T11:55:49.812Z,45.7
2022-11-03T12:01:08.577Z,46.6
2022-11-03T12:06:26.763Z,46.9
2022-11-03T12:11:51.389Z,46
2022-11-03T12:17:11.332Z,46
2022-11-03T12:22:29.519Z,46.2
2022-11-03T12:27:47.734Z,46.7
2022-11-03T12:33:07.602Z,47
2022-11-03T12:38:26.304Z,46.1
2022-11-03T12:43:45.226Z,46.3
2022-11-03T12:49:03.491Z,46.9
2022-11-03T12:54:21.957Z,46.4
2022-11-03T12:59:40.458Z,46.7
2022-11-03T13:04:58.971Z,47.1
2022-11-03T13:10:16.870Z,47.1
2022-11-03T13:15:34.817Z,46.8
2022-11-03T13:20:53.586Z,47.4
2022-11-03T13:26:12.038Z,46.6
2022-11-03T13:31:30.251Z,47.8
2022-11-03T13:36:48.473Z,47.5
2022-11-03T13:42:06.672Z,46.8
2022-11-03T14:00:47.745Z,47.5
2022-11-03T14:06:06.344Z,47.7
2022-11-03T14:11:24.652Z,47.5
2022-11-03T14:16:43.238Z,47.4
2022-11-03T14:22:01.722Z,47.6
2022-11-03T14:27:20.686Z,47.4
2022-11-03T14:32:39.259Z,46.8
2022-11-03T14:37:57.746Z,48.2
2022-11-03T14:43:16.245Z,47.6
2022-11-03T14:48:34.437Z,47.9
2022-11-03T14:53:52.640Z,47.3
2022-11-03T14:59:11.156Z,48.1
2022-11-03T15:04:29.620Z,47.3
2022-11-03T15:09:48.400Z,47.6
2022-11-03T15:15:06.630Z,47.8
2022-11-03T15:20:24.540Z,47.5
2022-11-03T15:25:43.022Z,46.5
2022-11-03T15:31:01.585Z,46.7
2022-11-03T15:36:20.315Z,46.8
2022-11-03T15:41:38.815Z,46.7
2022-11-03T15:46:57.318Z,46.7
2022-11-03T15:52:15.793Z,47.1
2022-11-03T15:57:33.711Z,46.9
2022-11-03T16:02:53.154Z,46.6
2022-11-03T16:08:12.349Z,47.1
2022-11-03T16:13:30.262Z,46.7
2022-11-03T16:18:49.037Z,47.2
2022-11-03T16:24:07.772Z,47.2
2022-11-03T16:29:26.245Z,46.8
2022-11-03T16:34:45.657Z,45.3
2022-11-03T16:40:04.412Z,46.3
2022-11-03T16:45:22.344Z,46.2
2022-11-03T16:50:45.556Z,46.3
2022-11-03T16:56:03.758Z,44.6
2022-11-03T17:01:23.033Z,44.4
2022-11-03T17:06:41.720Z,43.6
2022-11-03T17:12:01.588Z,42.7
2022-11-03T17:17:20.596Z,45.5
2022-11-03T17:22:39.162Z,46.7
2022-11-03T17:27:57.614Z,45.4
2022-11-03T17:33:16.375Z,46.2
2022-11-03T17:38:35.173Z,46.1
2022-11-03T17:43:53.633Z,45.5
2022-11-03T17:49:12.111Z,44.3
2022-11-03T17:54:30.923Z,43.5
2022-11-03T17:59:49.094Z,44.3
2022-11-03T18:05:07.582Z,42.6
2022-11-03T18:10:26.356Z,42.4
2022-11-03T18:15:44.802Z,44
2022-11-03T18:21:03.288Z,45.1
2022-11-03T18:26:06.609Z,44
2022-11-03T18:31:25.074Z,46.5
2022-11-03T18:36:43.007Z,46.4
2022-11-03T18:42:01.882Z,46.2
2022-11-03T18:47:05.004Z,45.7
2022-11-03T18:52:23.767Z,46.4
2022-11-03T18:57:42.290Z,46.2
2022-11-03T19:03:00.482Z,46.7
2022-11-03T19:08:18.972Z,47.7
2022-11-03T19:13:37.207Z,42.6
2022-11-03T19:18:56.656Z,44.5
2022-11-03T19:24:15.422Z,46
2022-11-03T19:29:33.940Z,46.6
2022-11-03T19:34:52.690Z,47.2
2022-11-03T19:40:11.148Z,47.4
2022-11-03T19:45:29.741Z,47.5
2022-11-03T19:50:48.192Z,47.3
2022-11-03T19:56:06.373Z,47.5
2022-11-03T20:01:25.052Z,47.7
2022-11-03T20:06:43.705Z,47.4
2022-11-03T20:12:02.461Z,47.8
2022-11-03T20:17:05.092Z,46.8
2022-11-03T20:22:23.247Z,46.7
2022-11-03T20:27:41.724Z,46.6
2022-11-03T20:32:59.971Z,47.4
2022-11-03T20:38:18.402Z,47.5
2022-11-03T20:43:37.165Z,47.6
2022-11-03T20:48:55.435Z,48
2022-11-03T20:54:13.617Z,47.6
2022-11-03T20:59:39.568Z,44.7
2022-11-03T21:04:57.773Z,45.5
2022-11-03T21:10:21.222Z,47
2022-11-03T21:16:25.020Z,47.8
2022-11-03T21:21:43.227Z,48.2
2022-11-03T21:27:01.682Z,48.4
2022-11-03T21:32:20.156Z,48.1
2022-11-03T21:37:38.385Z,48.4
2022-11-03T21:42:56.844Z,47.7
2022-11-03T21:48:17.158Z,48.4
2022-11-03T21:53:35.224Z,47.8
2022-11-03T21:58:53.417Z,48.7
2022-11-03T22:04:11.908Z,48.8
2022-11-03T22:09:30.707Z,48.8
2022-11-03T22:14:49.154Z,48.3
2022-11-03T22:20:07.361Z,49
2022-11-03T22:25:25.590Z,48.3
2022-11-03T22:30:44.339Z,48.3
2022-11-03T22:36:02.832Z,49.2
2022-11-03T22:41:21.342Z,48.8
2022-11-03T22:46:39.799Z,49
2022-11-03T22:51:58.027Z,49
2022-11-03T22:57:16.257Z,48.9
2022-11-03T23:02:34.933Z,48.3
2022-11-03T23:07:53.714Z,48.5
2022-11-03T23:13:12.450Z,48.7
2022-11-03T23:18:30.914Z,48.4
2022-11-03T23:23:49.680Z,49.2
2022-11-03T23:29:07.923Z,48.8
2022-11-03T23:34:26.671Z,49.2
2022-11-03T23:39:45.432Z,49.4
2022-11-03T23:45:04.443Z,48.9
2022-11-03T23:50:22.905Z,49.1
2022-11-03T23:55:40.841Z,49.2
